Time;durP1;ratioP1;P1;durP2;ratioP2;P2;SDS_P1;SDS_P2;PMS_P1;PMS_P2;Temp;Humidity;BMP_temperature;BMP_pressure;BME280_temperature;BME280_humidity;BME280_pressure;Samples;Min_cycle;Max_cycle;Signal;HPM_P1;HPM_P2
2021/11/30 00:02:29;;;;;;;6.75;4.63;;;;;;;10.29;100.00;99622.09;5100725;28;20023;-70
2021/11/30 00:05:15;;;;;;;6.40;4.50;;;;;;;10.35;100.00;99615.81;5115882;28;20027;-70
2021/11/30 00:08:03;;;;;;;6.40;4.60;;;;;;;10.37;100.00;99616.63;5114655;28;20027;-71
2021/11/30 00:10:48;;;;;;;8.77;4.70;;;;;;;10.17;100.00;99621.69;5115462;28;20035;-71
2021/11/30 00:13:36;;;;;;;6.13;4.70;;;;;;;9.86;100.00;99627.03;5115472;28;20036;-71
2021/11/30 00:16:22;;;;;;;7.00;4.80;;;;;;;9.77;100.00;99630.78;5115766;28;20031;-71
2021/11/30 00:19:08;;;;;;;6.55;5.05;;;;;;;9.42;100.00;99635.38;5116039;28;20024;-71
2021/11/30 00:21:55;;;;;;;6.45;4.93;;;;;;;9.93;100.00;99633.78;5115117;28;20031;-71
2021/11/30 00:24:41;;;;;;;6.72;4.55;;;;;;;10.25;100.00;99628.38;5114981;28;20414;-71
2021/11/30 00:27:27;;;;;;;6.03;4.53;;;;;;;10.07;100.00;99632.47;5115614;28;20082;-70
2021/11/30 00:30:13;;;;;;;8.20;5.10;;;;;;;9.69;100.00;99637.16;5101022;28;20034;-71
2021/11/30 00:33:01;;;;;;;7.30;4.80;;;;;;;9.88;100.00;99648.75;5100596;28;20051;-71
2021/11/30 00:35:46;;;;;;;8.15;5.15;;;;;;;10.13;100.00;99652.34;5115240;28;20024;-70
2021/11/30 00:38:32;;;;;;;8.10;5.38;;;;;;;9.77;100.00;99638.63;5115790;28;20415;-70
2021/11/30 00:41:18;;;;;;;8.32;4.57;;;;;;;10.05;100.00;99633.41;5114237;28;20050;-69
2021/11/30 00:44:04;;;;;;;8.73;5.20;;;;;;;9.70;100.00;99628.41;5116113;28;20024;-70
2021/11/30 00:46:53;;;;;;;7.97;5.22;;;;;;;10.04;100.00;99634.28;5098665;28;20340;-71
2021/11/30 00:49:39;;;;;;;8.02;5.25;;;;;;;9.86;100.00;99635.72;5114558;28;20055;-69
2021/11/30 00:52:25;;;;;;;11.32;5.00;;;;;;;9.94;100.00;99636.31;5114556;28;20041;-70
2021/11/30 00:55:12;;;;;;;7.32;4.97;;;;;;;9.69;100.00;99634.56;5115175;28;20112;-71
2021/11/30 00:57:58;;;;;;;7.90;5.38;;;;;;;9.79;100.00;99635.97;5115310;28;20020;-70
2021/11/30 01:00:44;;;;;;;9.90;5.85;;;;;;;9.20;100.00;99655.19;5113885;28;20028;-70
2021/11/30 01:03:30;;;;;;;8.07;5.50;;;;;;;9.51;100.00;99645.56;5115646;28;20046;-71
2021/11/30 01:06:16;;;;;;;8.32;5.63;;;;;;;9.50;100.00;99654.31;5114847;28;20062;-70
2021/11/30 01:09:03;;;;;;;8.57;5.72;;;;;;;9.72;100.00;99642.28;5115246;28;20410;-70
2021/11/30 01:11:49;;;;;;;7.68;5.38;;;;;;;9.53;100.00;99639.38;5115251;28;20036;-70
2021/11/30 01:14:35;;;;;;;8.10;5.53;;;;;;;9.50;100.00;99644.72;5113986;28;20574;-70
2021/11/30 08:35:27;;;;;;;37.30;21.95;;;;;;;4.97;100.00;99948.53;5110074;23;20479;-71
2021/11/30 08:38:13;;;;;;;32.03;19.52;;;;;;;4.38;100.00;99937.66;4981481;28;20042;-71
2021/11/30 08:40:59;;;;;;;33.03;20.05;;;;;;;4.54;100.00;99946.19;4981065;28;20510;-70
2021/11/30 08:43:45;;;;;;;33.95;19.38;;;;;;;4.37;100.00;99951.50;4981349;28;20069;-72
2021/11/30 08:46:33;;;;;;;30.27;18.55;;;;;;;4.69;100.00;99962.56;4980496;28;20026;-70
2021/11/30 08:49:20;;;;;;;31.77;19.50;;;;;;;4.46;100.00;99960.97;4994422;28;20042;-71
2021/11/30 08:52:10;;;;;;;37.85;22.48;;;;;;;4.74;100.00;99963.38;4994502;28;20026;-71
2021/11/30 08:54:57;;;;;;;32.70;20.27;;;;;;;4.66;100.00;99965.16;4994986;28;20050;-70
2021/11/30 08:57:43;;;;;;;35.83;21.25;;;;;;;4.92;100.00;99965.88;4981275;28;20094;-71
2021/11/30 09:00:30;;;;;;;35.25;20.98;;;;;;;5.28;100.00;99962.13;4995147;28;20030;-71
2021/11/30 09:03:16;;;;;;;38.33;22.50;;;;;;;5.46;100.00;99971.50;4981389;28;20409;-70
2021/11/30 09:06:02;;;;;;;33.03;20.30;;;;;;;5.20;100.00;99979.50;4993628;28;20459;-70
2021/11/30 09:08:48;;;;;;;30.77;19.00;;;;;;;5.59;100.00;99979.16;4995246;28;20061;-71
2021/11/30 09:11:36;;;;;;;42.47;25.42;;;;;;;5.34;100.00;99982.84;4993507;28;20034;-71
2021/11/30 09:14:23;;;;;;;44.92;26.45;;;;;;;4.94;100.00;99991.78;4994731;28;20026;-71
2021/11/30 09:17:08;;;;;;;41.35;26.00;;;;;;;5.23;100.00;99989.88;4994241;28;20469;-71
2021/11/30 09:19:54;;;;;;;47.13;27.90;;;;;;;4.90;100.00;99997.88;4981962;28;20072;-71
2021/11/30 09:22:40;;;;;;;53.03;32.05;;;;;;;5.05;100.00;99997.78;4993870;28;20022;-73
2021/11/30 09:25:27;;;;;;;48.58;28.05;;;;;;;5.31;100.00;100008.84;4980901;28;20442;-71
2021/11/30 09:28:12;;;;;;;46.58;27.40;;;;;;;5.56;100.00;100005.16;4994053;28;20124;-70
2021/11/30 09:31:07;;;;;;;25.02;15.88;;;;;;;5.59;100.00;100014.66;4993719;28;20026;-70
2021/11/30 09:33:53;;;;;;;21.00;13.25;;;;;;;5.78;100.00;100003.25;4993968;28;20428;-70
2021/11/30 09:36:42;;;;;;;15.45;10.25;;;;;;;5.68;100.00;100001.59;4993655;28;20041;-70
2021/11/30 09:39:28;;;;;;;16.40;11.43;;;;;;;6.10;100.00;100004.66;4995015;28;20140;-71
2021/11/30 09:42:16;;;;;;;13.07;9.18;;;;;;;6.22;100.00;100008.88;4993639;28;20123;-71
2021/11/30 09:45:09;;;;;;;13.60;9.52;;;;;;;6.23;100.00;100006.22;4981299;28;20367;-71
2021/11/30 09:47:55;;;;;;;14.98;10.35;;;;;;;6.41;100.00;100011.22;4992841;28;20037;-72
2021/11/30 09:50:43;;;;;;;21.00;12.18;;;;;;;6.48;100.00;100014.63;4993974;28;20037;-70
2021/11/30 09:53:29;;;;;;;21.13;12.80;;;;;;;6.51;100.00;100015.41;4980316;28;20037;-72
2021/11/30 09:56:15;;;;;;;23.23;13.93;;;;;;;6.56;100.00;100023.19;4993585;28;20022;-70
2021/11/30 09:59:01;;;;;;;18.55;12.40;;;;;;;5.99;100.00;100022.09;4993401;28;20035;-71
2021/11/30 10:01:47;;;;;;;13.23;9.52;;;;;;;5.54;100.00;100024.25;4993772;28;20084;-71
2021/11/30 10:04:35;;;;;;;15.35;10.40;;;;;;;5.85;100.00;100029.19;4993223;28;20084;-71
2021/11/30 10:07:38;;;;;;;16.00;10.15;;;;;;;6.01;100.00;100029.88;4994403;28;20037;-71
2021/11/30 10:10:28;;;;;;;14.50;9.43;;;;;;;5.86;100.00;100025.69;4993820;28;20030;-70
2021/11/30 10:13:14;;;;;;;16.05;11.07;;;;;;;6.21;100.00;100036.59;4994403;28;20109;-71
2021/11/30 10:16:05;;;;;;;25.85;16.50;;;;;;;6.22;100.00;100042.69;4993630;28;20030;-71
2021/11/30 10:18:51;;;;;;;16.60;11.23;;;;;;;6.27;100.00;100040.88;4994190;28;20499;-70
2021/11/30 10:21:37;;;;;;;13.63;9.57;;;;;;;6.04;100.00;100037.66;4993502;28;20022;-71
2021/11/30 10:24:28;;;;;;;14.07;9.15;;;;;;;6.32;100.00;100046.88;4996261;28;20029;-72
2021/11/30 10:27:28;;;;;;;19.67;10.88;;;;;;;6.33;100.00;100033.00;4983606;28;20109;-71
2021/11/30 10:30:21;;;;;;;19.35;12.48;;;;;;;6.15;100.00;100043.63;4997727;28;20359;-70
2021/11/30 10:33:18;;;;;;;18.48;11.90;;;;;;;6.40;100.00;100047.66;4997032;28;20478;-71
2021/11/30 10:36:06;;;;;;;15.00;10.55;;;;;;;6.66;100.00;100050.81;4997226;28;20053;-71
2021/11/30 10:38:51;;;;;;;14.90;10.35;;;;;;;6.56;100.00;100051.81;4997604;28;20113;-71
2021/11/30 10:41:37;;;;;;;16.90;10.27;;;;;;;6.07;100.00;100055.84;4997001;28;20430;-72
2021/11/30 10:44:31;;;;;;;15.77;9.68;;;;;;;6.44;100.00;100063.22;4982942;28;20026;-70
2021/11/30 10:47:23;;;;;;;19.52;11.70;;;;;;;6.20;100.00;100065.22;4997380;28;20100;-72
2021/11/30 10:50:14;;;;;;;14.32;10.00;;;;;;;6.28;100.00;100073.81;4996662;28;20065;-72
2021/11/30 10:53:01;;;;;;;39.40;23.55;;;;;;;5.88;100.00;100078.53;4983328;28;20078;-71
2021/11/30 10:55:54;;;;;;;35.72;24.10;;;;;;;6.28;100.00;100077.28;4997463;28;20069;-71
2021/11/30 10:58:42;;;;;;;39.58;25.80;;;;;;;6.41;100.00;100088.41;4996895;28;20034;-71
2021/11/30 11:01:28;;;;;;;40.90;24.63;;;;;;;6.47;100.00;100088.34;4998043;28;20037;-71
2021/11/30 11:04:14;;;;;;;40.92;26.52;;;;;;;5.84;100.00;100089.84;4997671;28;20473;-70
2021/11/30 11:07:10;;;;;;;39.50;26.08;;;;;;;5.62;100.00;100088.25;4982627;28;20038;-71
2021/11/30 11:09:56;;;;;;;37.70;24.85;;;;;;;5.83;100.00;100105.44;4997234;28;20437;-72
2021/11/30 11:12:42;;;;;;;43.60;27.08;;;;;;;6.17;100.00;100099.06;4982326;28;20023;-71
2021/11/30 11:15:41;;;;;;;37.83;24.25;;;;;;;5.95;100.00;100107.94;4998126;28;20034;-72
2021/11/30 11:18:35;;;;;;;36.20;23.42;;;;;;;6.17;100.00;100112.94;4995032;28;20030;-71
2021/11/30 11:21:32;;;;;;;33.80;22.33;;;;;;;5.96;100.00;100114.84;4996201;28;20042;-72
2021/11/30 11:24:25;;;;;;;29.95;19.42;;;;;;;5.99;100.00;100115.69;4996484;28;20439;-71
2021/11/30 11:27:12;;;;;;;26.50;18.25;;;;;;;6.17;100.00;100125.06;4983130;28;20112;-71
2021/11/30 11:30:02;;;;;;;22.83;16.13;;;;;;;6.24;100.00;100124.13;4996273;28;20030;-71
2021/11/30 11:32:57;;;;;;;19.85;13.93;;;;;;;6.09;100.00;100127.75;4983060;28;20120;-73
2021/11/30 11:35:44;;;;;;;17.50;12.27;;;;;;;5.98;100.00;100139.97;4981813;28;20104;-70
2021/11/30 11:38:30;;;;;;;19.20;13.07;;;;;;;6.14;100.00;100141.56;4982050;28;20130;-71
2021/11/30 11:41:17;;;;;;;19.70;12.40;;;;;;;6.02;100.00;100136.47;4996699;28;20074;-70
2021/11/30 11:44:03;;;;;;;20.77;13.02;;;;;;;6.03;100.00;100142.53;4996315;28;20045;-72
2021/11/30 11:46:52;;;;;;;19.98;13.52;;;;;;;6.24;100.00;100144.94;4995339;28;20027;-72
2021/11/30 11:49:47;;;;;;;18.60;11.18;;;;;;;6.13;100.00;100151.97;4997441;28;20057;-71
2021/11/30 11:52:41;;;;;;;15.07;10.93;;;;;;;6.37;100.00;100150.03;4995941;28;20118;-71
2021/11/30 11:55:31;;;;;;;13.07;9.43;;;;;;;6.16;100.00;100154.56;4996083;28;20050;-71
2021/11/30 11:58:29;;;;;;;13.25;8.73;;;;;;;6.08;100.00;100162.44;4996310;28;20105;-70
2021/11/30 12:01:17;;;;;;;14.20;10.10;;;;;;;6.22;100.00;100155.34;4996925;28;20046;-72
2021/11/30 12:04:08;;;;;;;20.25;13.90;;;;;;;6.53;100.00;100169.81;4995611;28;20503;-71
2021/11/30 12:07:01;;;;;;;16.70;11.65;;;;;;;6.42;100.00;100171.63;4996816;28;20035;-70
2021/11/30 12:09:47;;;;;;;16.10;11.02;;;;;;;6.71;100.00;100181.78;4996883;28;20041;-72
2021/11/30 12:12:34;;;;;;;20.45;12.88;;;;;;;6.38;100.00;100179.50;4995992;28;20041;-71
2021/11/30 12:15:19;;;;;;;19.27;13.65;;;;;;;6.42;100.00;100183.78;4996437;28;20026;-71
2021/11/30 12:18:24;;;;;;;17.67;12.60;;;;;;;6.14;100.00;100187.53;4995836;28;20087;-71
2021/11/30 12:21:22;;;;;;;19.00;13.45;;;;;;;5.74;100.00;100186.91;4981923;28;20113;-71
2021/11/30 12:24:09;;;;;;;18.23;13.02;;;;;;;5.87;100.00;100183.38;4995059;28;20410;-71
2021/11/30 12:26:59;;;;;;;13.68;9.80;;;;;;;5.54;100.00;100204.34;4995950;28;20038;-71
2021/11/30 12:29:45;;;;;;;13.00;8.75;;;;;;;5.47;100.00;100195.72;4996493;28;20030;-71
2021/11/30 12:32:33;;;;;;;11.90;8.13;;;;;;;5.37;100.00;100200.97;4995904;28;20070;-71
2021/11/30 12:35:20;;;;;;;11.55;8.23;;;;;;;5.42;100.00;100199.22;4994909;28;20065;-70
2021/11/30 12:38:19;;;;;;;11.05;7.80;;;;;;;5.32;100.00;100202.75;4994879;28;20489;-70
2021/11/30 12:41:22;;;;;;;10.60;6.90;;;;;;;5.27;100.00;100205.34;4995561;28;20044;-71
2021/11/30 12:44:24;;;;;;;14.48;8.20;;;;;;;5.48;100.00;100213.03;4995537;28;20450;-71
2021/11/30 12:47:26;;;;;;;11.07;7.88;;;;;;;5.54;100.00;100206.94;4981263;28;20042;-70
2021/11/30 12:50:26;;;;;;;13.38;8.52;;;;;;;5.40;100.00;100216.56;4993796;28;20038;-71
2021/11/30 12:53:12;;;;;;;11.32;6.95;;;;;;;5.55;100.00;100213.88;4981657;28;20022;-72
2021/11/30 12:55:58;;;;;;;10.57;6.47;;;;;;;5.50;100.00;100209.59;4994779;28;20040;-70
2021/11/30 12:58:48;;;;;;;8.30;5.95;;;;;;;6.09;100.00;100215.28;4995299;28;20045;-70
2021/11/30 13:01:37;;;;;;;10.27;6.50;;;;;;;6.34;100.00;100220.28;4996136;28;20362;-71
2021/11/30 13:04:32;;;;;;;11.85;7.45;;;;;;;6.14;100.00;100216.97;4980748;28;20427;-72
2021/11/30 13:07:19;;;;;;;7.53;5.95;;;;;;;5.78;100.00;100221.56;4981230;28;20121;-71
2021/11/30 13:10:05;;;;;;;8.32;6.18;;;;;;;5.15;100.00;100220.97;4994815;28;20104;-72
2021/11/30 13:12:58;;;;;;;9.88;6.85;;;;;;;5.79;100.00;100229.31;4995129;28;20026;-72
2021/11/30 13:15:47;;;;;;;12.50;8.88;;;;;;;5.51;100.00;100230.38;4995028;28;20447;-71
2021/11/30 13:18:34;;;;;;;13.77;9.27;;;;;;;5.34;100.00;100227.84;4994500;28;20038;-71
2021/11/30 13:21:23;;;;;;;13.80;9.82;;;;;;;6.08;100.00;100239.56;4994220;28;20344;-71
2021/11/30 13:24:14;;;;;;;16.58;11.38;;;;;;;5.63;100.00;100237.22;4993501;28;20068;-71
2021/11/30 13:27:35;;;;;;;18.45;12.88;;;;;;;6.02;100.00;100245.66;4979859;28;20034;-71
2021/11/30 13:30:25;;;;;;;17.25;11.48;;;;;;;5.71;100.00;100249.31;4980626;28;20022;-70
2021/11/30 13:33:18;;;;;;;18.15;11.77;;;;;;;5.96;100.00;100252.66;4995372;28;20030;-71
2021/11/30 13:36:07;;;;;;;23.90;15.20;;;;;;;6.26;100.00;100265.44;4979905;28;20339;-72
2021/11/30 13:38:53;;;;;;;22.38;15.18;;;;;;;6.36;100.00;100262.75;4995910;28;20035;-70
2021/11/30 13:41:39;;;;;;;23.15;13.63;;;;;;;6.18;100.00;100265.50;4994353;28;20030;-73
2021/11/30 13:44:24;;;;;;;18.42;11.80;;;;;;;6.35;100.00;100276.63;4993941;28;20038;-71
2021/11/30 13:47:10;;;;;;;18.65;11.55;;;;;;;6.20;100.00;100268.09;4993932;28;20412;-70
2021/11/30 13:49:57;;;;;;;16.85;10.65;;;;;;;5.94;100.00;100275.19;4993990;28;20058;-71
2021/11/30 13:52:43;;;;;;;16.75;10.23;;;;;;;6.39;100.00;100270.53;4993920;28;20033;-71
2021/11/30 13:55:29;;;;;;;15.10;10.20;;;;;;;6.22;100.00;100261.16;4994406;28;20136;-70
2021/11/30 13:58:20;;;;;;;20.40;13.75;;;;;;;6.03;100.00;100278.59;4994298;28;20044;-71
2021/11/30 14:04:13;;;;;;;28.50;17.73;;;;;;;6.27;100.00;100281.03;4997495;28;20061;-71
2021/11/30 14:07:04;;;;;;;30.83;20.08;;;;;;;6.28;100.00;100271.50;4984126;28;20018;-71
2021/11/30 14:09:50;;;;;;;33.08;21.30;;;;;;;6.34;100.00;100280.09;4997958;28;20053;-70
2021/11/30 14:12:36;;;;;;;33.95;21.05;;;;;;;6.28;100.00;100284.50;4983363;28;20489;-70
2021/11/30 14:15:22;;;;;;;35.47;22.02;;;;;;;6.06;100.00;100277.72;4997570;28;20415;-72
2021/11/30 14:18:10;;;;;;;34.80;22.60;;;;;;;6.25;100.00;100282.78;4997338;28;20046;-71
2021/11/30 14:20:55;;;;;;;38.58;24.95;;;;;;;6.27;100.00;100293.19;4985043;28;20387;-71
2021/11/30 14:23:41;;;;;;;39.65;25.92;;;;;;;6.02;100.00;100289.03;4997580;28;20091;-71
2021/11/30 14:26:27;;;;;;;41.05;25.77;;;;;;;5.89;100.00;100290.81;4997067;28;20022;-71
2021/11/30 14:29:16;;;;;;;37.72;24.88;;;;;;;6.23;100.00;100291.47;4997897;28;20030;-70
2021/11/30 14:32:11;;;;;;;36.33;23.40;;;;;;;6.19;100.00;100295.81;4997709;28;20030;-72
2021/11/30 14:35:05;;;;;;;34.45;21.95;;;;;;;6.03;100.00;100301.97;4996415;28;20398;-71
2021/11/30 14:37:54;;;;;;;33.42;21.90;;;;;;;5.84;100.00;100289.09;4997604;28;20120;-70
2021/11/30 14:40:41;;;;;;;34.78;21.85;;;;;;;5.81;100.00;100294.31;4997407;28;20034;-71
2021/11/30 14:43:31;;;;;;;40.50;22.73;;;;;;;5.73;100.00;100293.44;4997230;28;20108;-70
2021/11/30 14:46:18;;;;;;;38.70;21.50;;;;;;;5.68;100.00;100300.41;4997059;28;20104;-72
2021/11/30 14:49:12;;;;;;;35.55;20.40;;;;;;;5.50;100.00;100296.16;4998123;28;20109;-71
2021/11/30 14:51:58;;;;;;;30.77;18.95;;;;;;;5.52;100.00;100309.16;4996748;28;20023;-70
2021/11/30 14:54:46;;;;;;;34.03;20.75;;;;;;;5.54;100.00;100300.47;4996510;28;20378;-71
2021/11/30 14:57:32;;;;;;;31.95;19.65;;;;;;;5.50;100.00;100303.09;4998102;28;20371;-71
2021/11/30 15:00:36;;;;;;;31.65;19.60;;;;;;;5.46;100.00;100304.00;4997892;28;20038;-70
2021/11/30 15:03:54;;;;;;;29.83;18.83;;;;;;;5.29;100.00;100328.28;4998188;28;20092;-71
2021/11/30 15:06:47;;;;;;;31.38;19.25;;;;;;;5.45;100.00;100318.69;4995668;28;20022;-72
2021/11/30 15:09:36;;;;;;;27.38;17.17;;;;;;;5.19;100.00;100321.34;4996785;28;20117;-71
2021/11/30 15:12:26;;;;;;;27.90;18.00;;;;;;;5.31;100.00;100330.88;4996357;28;20030;-71
2021/11/30 15:15:12;;;;;;;28.23;18.27;;;;;;;5.89;100.00;100328.94;4996552;28;20102;-72
2021/11/30 15:18:15;;;;;;;29.52;18.13;;;;;;;5.44;100.00;100329.97;4995827;28;20105;-71
2021/11/30 15:21:00;;;;;;;28.25;19.38;;;;;;;5.69;100.00;100322.94;4995996;28;20355;-71
2021/11/30 15:23:46;;;;;;;27.65;18.17;;;;;;;5.85;100.00;100345.41;4996882;28;20034;-71
2021/11/30 15:26:36;;;;;;;26.05;18.05;;;;;;;5.57;100.00;100349.84;4995949;28;20040;-72
2021/11/30 15:29:25;;;;;;;27.20;17.20;;;;;;;5.79;100.00;100342.81;4995863;28;20126;-71
2021/11/30 15:32:19;;;;;;;24.73;16.38;;;;;;;5.81;100.00;100341.97;4997078;28;20513;-70
2021/11/30 15:35:10;;;;;;;28.70;18.38;;;;;;;5.76;100.00;100343.72;4995628;28;20062;-72
2021/11/30 15:37:56;;;;;;;26.48;16.60;;;;;;;5.52;100.00;100361.97;4995657;28;20351;-71
2021/11/30 15:40:42;;;;;;;23.75;15.85;;;;;;;5.51;100.00;100362.84;4995941;28;20034;-71
2021/11/30 15:43:28;;;;;;;22.00;14.95;;;;;;;5.14;100.00;100369.84;4995643;28;20370;-70
2021/11/30 15:46:14;;;;;;;28.92;17.27;;;;;;;5.28;100.00;100370.66;4982186;28;20049;-71
2021/11/30 15:49:00;;;;;;;26.80;17.15;;;;;;;5.58;100.00;100368.91;4995754;28;20121;-70
2021/11/30 15:51:49;;;;;;;26.35;16.55;;;;;;;5.40;100.00;100370.66;4982880;28;20436;-71
2021/11/30 15:54:37;;;;;;;22.67;14.55;;;;;;;5.37;100.00;100377.59;4995019;28;20105;-71
2021/11/30 15:57:27;;;;;;;24.73;15.30;;;;;;;5.47;100.00;100381.03;4995595;28;20041;-71
2021/11/30 16:00:15;;;;;;;25.52;15.30;;;;;;;5.76;100.00;100379.22;4981658;28;20030;-71
2021/11/30 16:03:01;;;;;;;20.42;13.57;;;;;;;5.48;100.00;100381.88;4996446;28;20026;-72
2021/11/30 16:05:46;;;;;;;20.55;13.77;;;;;;;5.56;100.00;100394.88;4982004;28;20034;-70
2021/11/30 16:08:32;;;;;;;22.67;14.80;;;;;;;5.42;100.00;100393.19;4995167;28;20101;-71
2021/11/30 16:11:18;;;;;;;21.00;13.55;;;;;;;5.20;100.00;100403.56;4995926;28;20030;-70
2021/11/30 16:14:05;;;;;;;25.20;13.48;;;;;;;5.39;100.00;100394.06;4995770;28;20026;-70
2021/11/30 16:16:51;;;;;;;23.25;14.52;;;;;;;5.31;100.00;100386.25;4981649;28;20072;-70
2021/11/30 16:19:37;;;;;;;18.90;12.35;;;;;;;5.15;100.00;100391.50;4995419;28;20072;-71
2021/11/30 16:22:23;;;;;;;21.45;13.65;;;;;;;5.32;100.00;100400.13;4993979;28;20455;-71
2021/11/30 16:25:09;;;;;;;22.63;13.00;;;;;;;5.15;100.00;100392.34;4996176;28;20030;-70
2021/11/30 16:27:55;;;;;;;19.77;12.85;;;;;;;5.40;100.00;100411.38;4994846;28;20084;-72
2021/11/30 16:30:41;;;;;;;20.67;12.93;;;;;;;5.41;100.00;100405.28;4994824;28;20034;-69
2021/11/30 16:33:26;;;;;;;20.40;12.35;;;;;;;5.36;100.00;100415.69;4994795;28;20037;-70
2021/11/30 16:36:12;;;;;;;17.70;12.30;;;;;;;5.36;100.00;100415.69;4975819;28;20385;-72
2021/11/30 16:38:58;;;;;;;20.42;12.82;;;;;;;5.16;100.00;100414.84;4975303;28;20043;-71
2021/11/30 16:41:45;;;;;;;18.48;12.55;;;;;;;5.00;100.00;100413.16;4975489;28;20049;-70
2021/11/30 16:44:31;;;;;;;19.02;12.00;;;;;;;5.02;100.00;100408.78;4975700;28;20043;-71
2021/11/30 16:47:17;;;;;;;16.58;11.45;;;;;;;4.95;100.00;100408.81;4962407;28;20026;-70
2021/11/30 16:50:04;;;;;;;20.92;12.75;;;;;;;4.89;100.00;100401.88;4976033;28;20042;-70
2021/11/30 16:52:50;;;;;;;19.55;11.93;;;;;;;5.13;100.00;100417.47;4976174;28;20031;-71
2021/11/30 16:55:37;;;;;;;18.58;12.40;;;;;;;5.00;100.00;100412.25;4975386;28;20459;-71
2021/11/30 16:58:24;;;;;;;20.63;12.63;;;;;;;4.78;100.00;100406.19;4975860;28;20118;-70
2021/11/30 17:01:10;;;;;;;20.70;12.15;;;;;;;4.70;100.00;100415.69;4976268;28;20038;-70
2021/11/30 17:03:56;;;;;;;18.95;12.77;;;;;;;4.82;100.00;100422.63;4975632;28;20430;-72
2021/11/30 17:06:43;;;;;;;18.60;12.40;;;;;;;4.45;100.00;100436.41;4961561;28;20026;-71
2021/11/30 17:09:28;;;;;;;18.50;11.70;;;;;;;4.58;100.00;100436.44;4975734;28;20045;-70
2021/11/30 17:12:17;;;;;;;19.38;12.48;;;;;;;4.55;100.00;100446.78;4974938;28;20046;-71
2021/11/30 17:15:05;;;;;;;18.25;12.25;;;;;;;4.49;100.00;100435.53;4975263;28;20069;-70
2021/11/30 17:17:51;;;;;;;17.50;11.65;;;;;;;4.51;100.00;100457.19;4975147;28;20031;-72
2021/11/30 17:20:41;;;;;;;19.80;12.13;;;;;;;4.38;100.00;100461.47;4975552;28;20035;-70
2021/11/30 17:23:30;;;;;;;16.90;12.15;;;;;;;4.74;100.00;100464.13;4974928;28;20478;-70
2021/11/30 17:26:17;;;;;;;17.38;11.13;;;;;;;4.29;100.00;100466.63;4975468;28;20035;-70
2021/11/30 17:29:05;;;;;;;18.48;12.82;;;;;;;4.53;100.00;100476.19;4974937;28;20069;-71
2021/11/30 17:31:51;;;;;;;17.63;12.05;;;;;;;4.39;100.00;100476.16;4975420;28;20027;-72
2021/11/30 17:34:37;;;;;;;18.67;12.27;;;;;;;4.22;100.00;100480.41;4990174;28;20065;-73
2021/11/30 17:37:23;;;;;;;18.30;12.45;;;;;;;4.09;100.00;100482.94;5003572;28;20030;-71
2021/11/30 17:40:09;;;;;;;18.92;12.23;;;;;;;4.19;100.00;100479.53;5003391;28;20026;-71
2021/11/30 17:42:59;;;;;;;16.65;11.30;;;;;;;4.22;100.00;100477.81;5000797;28;20033;-71
2021/11/30 17:45:45;;;;;;;18.48;12.70;;;;;;;4.04;100.00;100497.59;5000637;28;20034;-71
2021/11/30 17:48:34;;;;;;;18.05;12.18;;;;;;;4.31;100.00;100487.38;5000805;28;20061;-71
2021/11/30 17:51:20;;;;;;;16.88;11.63;;;;;;;4.07;100.00;100500.22;5000156;28;20030;-71
2021/11/30 17:54:06;;;;;;;19.90;13.30;;;;;;;4.44;100.00;100512.47;4999938;28;20037;-70
2021/11/30 17:56:53;;;;;;;18.70;11.50;;;;;;;4.06;100.00;100516.66;5000315;28;20096;-71
2021/11/30 17:59:39;;;;;;;18.67;12.35;;;;;;;4.27;100.00;100527.13;4986966;28;20034;-70
2021/11/30 18:02:25;;;;;;;20.08;12.85;;;;;;;4.08;100.00;100526.16;5001237;28;20026;-70
2021/11/30 18:05:12;;;;;;;21.48;12.65;;;;;;;3.98;100.00;100520.91;5001530;28;20026;-71
2021/11/30 18:07:57;;;;;;;20.75;13.15;;;;;;;4.13;100.00;100526.16;4987250;28;20381;-72
2021/11/30 18:10:44;;;;;;;19.38;13.35;;;;;;;4.13;100.00;100537.41;5000534;28;20042;-71
2021/11/30 18:13:29;;;;;;;20.80;13.15;;;;;;;4.08;100.00;100536.53;4987061;28;20030;-71
2021/11/30 18:16:15;;;;;;;19.55;13.00;;;;;;;4.12;100.00;100524.44;5000170;28;20030;-70
2021/11/30 18:19:01;;;;;;;19.10;12.20;;;;;;;4.24;100.00;100529.69;5000424;28;20042;-71
2021/11/30 18:21:47;;;;;;;20.73;13.18;;;;;;;4.43;100.00;100526.31;5000420;28;20038;-72
2021/11/30 18:24:34;;;;;;;20.25;13.35;;;;;;;4.15;100.00;100532.25;5000263;28;20095;-72
2021/11/30 18:27:20;;;;;;;20.50;12.55;;;;;;;4.46;100.00;100537.56;5000713;28;20458;-70
2021/11/30 18:30:08;;;;;;;21.48;13.27;;;;;;;4.11;100.00;100544.28;5000994;28;20054;-70
2021/11/30 18:32:55;;;;;;;20.92;13.63;;;;;;;4.22;100.00;100557.34;5000863;28;20026;-71
2021/11/30 18:35:40;;;;;;;18.90;12.65;;;;;;;4.09;100.00;100560.69;5000075;28;20050;-71
2021/11/30 18:38:27;;;;;;;21.05;13.50;;;;;;;3.84;100.00;100559.69;5000424;28;20030;-70
2021/11/30 18:41:13;;;;;;;19.90;12.90;;;;;;;3.90;100.00;100556.28;4999604;28;20022;-70
2021/11/30 18:43:59;;;;;;;19.45;12.50;;;;;;;3.97;100.00;100558.03;4998809;28;20030;-71
2021/11/30 18:46:44;;;;;;;18.95;12.20;;;;;;;3.93;100.00;100562.34;4996205;28;20129;-70
2021/11/30 18:49:31;;;;;;;20.05;13.13;;;;;;;4.03;100.00;100563.28;4997038;28;20117;-74
2021/11/30 18:52:17;;;;;;;18.40;11.98;;;;;;;3.80;100.00;100563.13;4983562;28;20041;-70
2021/11/30 18:55:03;;;;;;;19.20;12.73;;;;;;;3.77;100.00;100559.63;4996470;28;20062;-71
2021/11/30 18:57:49;;;;;;;19.38;12.90;;;;;;;3.86;100.00;100570.06;4984961;28;20034;-70
2021/11/30 19:00:36;;;;;;;21.10;12.85;;;;;;;3.88;100.00;100563.16;4996965;28;20061;-71
2021/11/30 19:03:22;;;;;;;21.20;13.02;;;;;;;3.80;100.00;100573.50;4983987;28;20100;-70
2021/11/30 19:06:08;;;;;;;20.98;13.90;;;;;;;3.69;100.00;100569.06;4996021;28;20084;-72
2021/11/30 19:08:54;;;;;;;19.17;12.23;;;;;;;3.98;100.00;100571.00;4996564;28;20018;-70
2021/11/30 19:11:39;;;;;;;20.55;13.23;;;;;;;3.83;100.00;100568.34;4997154;28;20026;-71
2021/11/30 19:14:25;;;;;;;19.15;12.73;;;;;;;3.97;100.00;100571.00;4998067;28;20109;-71
2021/11/30 19:17:11;;;;;;;17.58;12.25;;;;;;;3.89;100.00;100565.78;4997783;28;20129;-70
2021/11/30 19:19:57;;;;;;;22.83;13.50;;;;;;;4.06;100.00;100584.03;4998247;28;20030;-71
2021/11/30 19:22:42;;;;;;;18.20;12.73;;;;;;;3.81;100.00;100579.50;4995837;28;20033;-71
2021/11/30 19:25:28;;;;;;;19.90;12.35;;;;;;;3.73;100.00;100574.28;4997127;28;20026;-71
2021/11/30 19:28:15;;;;;;;20.73;13.00;;;;;;;3.62;100.00;100582.84;4997473;28;20084;-70
2021/11/30 19:31:02;;;;;;;18.63;12.30;;;;;;;3.53;100.00;100586.22;4995936;28;20026;-69
2021/11/30 19:33:50;;;;;;;19.67;13.43;;;;;;;3.74;100.00;100590.72;4982891;28;20023;-71
2021/11/30 19:36:36;;;;;;;22.27;12.52;;;;;;;3.67;100.00;100604.47;4995598;28;20034;-71
2021/11/30 19:39:23;;;;;;;19.13;12.38;;;;;;;3.85;100.00;100600.28;4995775;28;20026;-71
2021/11/30 19:42:09;;;;;;;18.13;12.32;;;;;;;3.82;100.00;100605.44;4997182;28;20018;-72
2021/11/30 19:44:55;;;;;;;19.02;12.13;;;;;;;3.97;100.00;100605.56;4996960;28;20022;-71
2021/11/30 19:47:45;;;;;;;17.67;11.88;;;;;;;3.78;100.00;100602.84;4996245;28;20030;-70
2021/11/30 19:50:32;;;;;;;19.75;12.45;;;;;;;3.92;100.00;100607.25;4996512;28;20030;-70
2021/11/30 19:53:19;;;;;;;15.70;11.15;;;;;;;3.63;100.00;100605.28;4982197;28;20458;-71
2021/11/30 19:56:05;;;;;;;15.68;11.18;;;;;;;4.00;100.00;100594.34;4967693;28;20034;-71
2021/11/30 19:58:52;;;;;;;17.25;11.80;;;;;;;3.88;100.00;100608.09;4996043;28;20030;-71
2021/11/30 20:07:48;;;;;;;16.45;11.00;;;;;;;4.06;100.00;100599.59;4996823;28;20030;-72
2021/11/30 20:10:35;;;;;;;16.00;11.70;;;;;;;3.90;100.00;100593.41;4996662;28;20031;-70
2021/11/30 20:13:23;;;;;;;17.33;11.35;;;;;;;4.05;100.00;100609.06;4996065;28;20031;-70
2021/11/30 20:16:11;;;;;;;17.60;11.60;;;;;;;4.02;100.00;100605.59;4996395;28;20034;-70